createdAt,value
2023-05-16T00:03:47.120Z,14.75
2023-05-16T00:08:49.498Z,17.42
2023-05-16T00:13:51.648Z,15.80
2023-05-16T00:18:53.383Z,16.88
2023-05-16T00:23:55.046Z,15.88
2023-05-16T00:28:56.683Z,13.45
2023-05-16T00:33:58.931Z,13.73
2023-05-16T00:39:01.264Z,12.30
2023-05-16T00:44:02.946Z,14.10
2023-05-16T00:49:05.423Z,12.23
2023-05-16T00:54:07.367Z,14.68
2023-05-16T00:59:09.006Z,15.45
2023-05-16T01:04:11.152Z,12.52
2023-05-16T01:09:14.280Z,14.85
2023-05-16T01:14:25.595Z,14.80
2023-05-16T01:19:41.063Z,13.93
2023-05-16T01:25:07.914Z,17.65
2023-05-16T01:30:18.883Z,17.00
2023-05-16T01:35:20.847Z,14.57
2023-05-16T01:40:45.715Z,16.95
2023-05-16T01:45:53.636Z,17.77
2023-05-16T01:50:57.682Z,15.77
2023-05-16T01:56:02.267Z,20.02
2023-05-16T02:01:06.566Z,27.65
2023-05-16T02:06:08.165Z,29.73
2023-05-16T02:11:09.867Z,22.88
2023-05-16T02:16:11.945Z,33.28
2023-05-16T02:21:13.513Z,32.78
2023-05-16T02:26:15.048Z,38.08
2023-05-16T02:31:31.356Z,37.72
2023-05-16T02:36:34.484Z,34.20
2023-05-16T02:41:36.227Z,38.35
2023-05-16T02:46:37.926Z,38.22
2023-05-16T02:51:39.688Z,36.80
2023-05-16T02:56:41.210Z,36.72
2023-05-16T03:01:43.034Z,35.25
2023-05-16T03:06:44.740Z,40.10
2023-05-16T03:11:46.642Z,34.40
2023-05-16T03:16:48.501Z,35.85
2023-05-16T03:21:50.270Z,36.55
2023-05-16T03:26:52.214Z,35.05
2023-05-16T03:31:56.670Z,36.33
2023-05-16T03:36:58.413Z,34.33
2023-05-16T03:41:59.985Z,39.53
2023-05-16T03:47:01.707Z,42.33
2023-05-16T03:52:07.134Z,35.40
2023-05-16T03:57:08.955Z,34.58
2023-05-16T04:02:11.024Z,34.03
2023-05-16T04:07:12.918Z,34.17
2023-05-16T04:12:14.679Z,31.98
2023-05-16T04:17:16.683Z,33.08
2023-05-16T04:22:18.407Z,31.20
2023-05-16T04:27:20.006Z,31.15
2023-05-16T04:32:21.566Z,28.20
2023-05-16T04:37:23.522Z,31.27
2023-05-16T04:42:25.064Z,28.20
2023-05-16T04:47:26.835Z,28.60
2023-05-16T04:52:28.512Z,25.77
2023-05-16T04:57:30.045Z,28.65
2023-05-16T05:02:32.262Z,24.02
2023-05-16T05:07:33.929Z,27.65
2023-05-16T05:12:35.753Z,29.75
2023-05-16T05:17:37.886Z,28.13
2023-05-16T05:22:39.630Z,29.73
2023-05-16T05:27:41.207Z,24.42
2023-05-16T05:32:42.832Z,26.10
2023-05-16T05:37:44.584Z,28.77
2023-05-16T05:42:47.255Z,25.13
2023-05-16T05:47:49.181Z,28.25
2023-05-16T05:52:51.111Z,27.00
2023-05-16T05:57:52.685Z,26.90
2023-05-16T06:02:54.364Z,24.92
2023-05-16T06:07:56.060Z,26.52
2023-05-16T06:12:57.587Z,24.10
2023-05-16T06:17:59.439Z,20.98
2023-05-16T06:23:01.350Z,24.95
2023-05-16T06:28:02.872Z,21.10
2023-05-16T06:33:05.394Z,21.55
2023-05-16T06:38:06.947Z,20.13
2023-05-16T06:43:08.526Z,15.77
2023-05-16T06:48:10.216Z,15.30
2023-05-16T06:53:12.304Z,13.45
2023-05-16T06:58:14.146Z,12.52
2023-05-16T07:03:15.874Z,11.68
2023-05-16T07:08:17.469Z,12.10
2023-05-16T07:13:19.118Z,7.00
2023-05-16T07:18:29.347Z,9.32
2023-05-16T07:23:31.269Z,7.82
2023-05-16T07:28:32.845Z,6.57
2023-05-16T07:33:34.461Z,4.63
2023-05-16T07:38:36.161Z,4.55
2023-05-16T07:43:37.802Z,3.35
2023-05-16T07:48:40.088Z,3.17
2023-05-16T07:53:42.110Z,2.67
2023-05-16T07:58:43.960Z,2.42
2023-05-16T08:03:45.649Z,2.42
2023-05-16T08:08:47.260Z,4.80
2023-05-16T08:13:49.985Z,2.00
2023-05-16T08:18:53.480Z,2.65
2023-05-16T08:24:12.022Z,2.10
2023-05-16T08:29:14.029Z,2.50
2023-05-16T08:34:15.974Z,2.00
2023-05-16T08:39:17.564Z,2.00
2023-05-16T08:44:29.484Z,2.00
2023-05-16T08:49:32.836Z,3.28
2023-05-16T08:54:37.323Z,2.78
2023-05-16T08:59:38.979Z,2.05
2023-05-16T09:04:43.199Z,4.10
2023-05-16T09:09:44.869Z,5.32
2023-05-16T09:14:47.601Z,2.47
2023-05-16T09:19:52.872Z,3.85
2023-05-16T09:24:54.513Z,4.15
2023-05-16T09:29:58.374Z,3.60
2023-05-16T09:35:00.498Z,3.25
2023-05-16T09:40:03.497Z,3.10
2023-05-16T09:45:05.857Z,3.05
2023-05-16T09:50:07.916Z,4.25
2023-05-16T09:55:11.440Z,2.15
2023-05-16T10:00:13.579Z,2.70
2023-05-16T10:05:17.723Z,5.22
2023-05-16T10:10:20.432Z,4.72
2023-05-16T10:15:22.315Z,4.35
2023-05-16T10:20:24.348Z,2.05
2023-05-16T10:25:31.254Z,2.83
2023-05-16T10:30:44.259Z,2.22
2023-05-16T10:35:46.722Z,1.90
2023-05-16T10:40:59.470Z,2.17
2023-05-16T10:46:11.725Z,1.70
2023-05-16T10:51:22.724Z,1.25
2023-05-16T10:56:26.379Z,4.50
2023-05-16T11:01:31.969Z,1.65
2023-05-16T11:06:59.716Z,1.58
2023-05-16T11:12:03.489Z,3.00
2023-05-16T11:17:41.951Z,2.13
2023-05-16T11:27:48.007Z,2.80
2023-05-16T11:32:50.722Z,0.65
2023-05-16T11:37:52.709Z,1.95
2023-05-16T11:42:54.376Z,2.65
2023-05-16T11:48:04.211Z,1.00
2023-05-16T11:58:12.334Z,0.75
2023-05-16T12:03:14.158Z,1.67
2023-05-16T12:08:16.636Z,2.53
2023-05-16T12:13:20.632Z,3.00
2023-05-16T12:18:24.354Z,3.03
2023-05-16T12:23:26.904Z,1.73
2023-05-16T12:28:35.605Z,2.95
2023-05-16T12:33:37.982Z,1.92
2023-05-16T12:38:39.759Z,3.53
2023-05-16T12:43:41.316Z,1.75
2023-05-16T12:48:44.168Z,2.95
2023-05-16T12:54:01.557Z,2.38
2023-05-16T12:59:15.185Z,1.33
2023-05-16T13:04:19.850Z,3.55
2023-05-16T13:09:21.892Z,5.85
2023-05-16T13:14:23.728Z,4.88
2023-05-16T13:19:25.976Z,5.65
2023-05-16T13:24:28.009Z,5.15
2023-05-16T13:29:29.690Z,6.50
2023-05-16T13:34:35.608Z,6.93
2023-05-16T13:39:41.811Z,5.38
2023-05-16T13:44:44.995Z,4.95
2023-05-16T13:49:47.548Z,6.07
2023-05-16T13:54:49.175Z,5.57
2023-05-16T14:05:01.594Z,5.38
2023-05-16T14:10:04.105Z,4.75
2023-05-16T14:15:06.629Z,10.65
2023-05-16T14:20:10.140Z,10.02
2023-05-16T14:25:17.585Z,4.68
2023-05-16T14:30:19.397Z,4.97
2023-05-16T14:35:21.029Z,4.18
2023-05-16T14:40:23.043Z,5.22
2023-05-16T14:45:24.632Z,6.80
2023-05-16T14:50:26.397Z,5.93
2023-05-16T14:55:28.304Z,3.80
2023-05-16T15:00:35.632Z,5.82
2023-05-16T15:05:37.384Z,5.65
2023-05-16T15:10:39.147Z,5.95
2023-05-16T15:15:41.225Z,5.40
2023-05-16T15:20:47.497Z,4.35
2023-05-16T15:25:49.486Z,4.07
2023-05-16T15:30:53.503Z,7.15
2023-05-16T15:35:55.048Z,5.78
2023-05-16T15:41:18.606Z,4.68
2023-05-16T15:46:27.639Z,4.10
2023-05-16T15:51:29.183Z,4.10
2023-05-16T15:56:35.601Z,4.90
2023-05-16T16:01:37.251Z,8.43
2023-05-16T16:06:41.514Z,5.13
2023-05-16T16:11:47.612Z,7.00
2023-05-16T16:16:53.546Z,3.95
2023-05-16T16:22:05.554Z,6.05
2023-05-16T16:27:07.130Z,4.80
2023-05-16T16:32:08.691Z,6.20
2023-05-16T16:37:11.674Z,4.85
2023-05-16T16:42:30.518Z,5.55
2023-05-16T16:47:32.507Z,6.20
2023-05-16T16:52:35.628Z,7.72
2023-05-16T16:57:47.558Z,5.00
2023-05-16T17:02:49.431Z,6.38
2023-05-16T17:07:51.703Z,3.55
2023-05-16T17:12:54.626Z,5.90
2023-05-16T17:17:56.253Z,4.18
2023-05-16T17:22:57.999Z,4.95
2023-05-16T17:27:59.626Z,4.55
2023-05-16T17:33:11.617Z,3.67
2023-05-16T17:38:13.434Z,6.53
2023-05-16T17:43:17.760Z,5.38
2023-05-16T17:48:19.588Z,3.60
2023-05-16T17:53:21.235Z,2.80
2023-05-16T17:58:29.655Z,8.20
2023-05-16T18:03:36.275Z,5.10
2023-05-16T18:08:37.927Z,3.50
2023-05-16T18:13:39.805Z,3.17
2023-05-16T18:18:41.595Z,3.20
2023-05-16T18:23:43.356Z,3.88
2023-05-16T18:28:45.481Z,3.20
2023-05-16T18:33:47.951Z,2.72
2023-05-16T18:38:49.627Z,5.13
2023-05-16T18:43:51.299Z,3.03
2023-05-16T18:48:59.749Z,3.47
2023-05-16T18:54:05.757Z,4.22
2023-05-16T18:59:11.682Z,3.20
2023-05-16T19:04:13.278Z,4.25
2023-05-16T19:09:17.635Z,3.38
2023-05-16T19:14:19.323Z,2.60
2023-05-16T19:19:21.345Z,4.13
2023-05-16T19:24:23.715Z,5.78
2023-05-16T19:29:25.369Z,4.40
2023-05-16T19:34:27.146Z,3.88
2023-05-16T19:39:29.925Z,1.80
2023-05-16T19:44:31.474Z,2.63
2023-05-16T19:49:35.792Z,3.85
2023-05-16T19:54:37.398Z,2.03
2023-05-16T19:59:38.949Z,9.23
2023-05-16T20:04:40.623Z,4.82
2023-05-16T20:09:47.717Z,3.88
2023-05-16T20:14:53.652Z,3.10
2023-05-16T20:20:11.743Z,2.25
2023-05-16T20:25:17.686Z,2.45
2023-05-16T20:30:19.293Z,3.85
2023-05-16T20:35:20.969Z,2.53
2023-05-16T20:40:23.096Z,4.82
2023-05-16T20:45:27.198Z,4.43
2023-05-16T20:50:39.030Z,3.25
2023-05-16T20:55:40.794Z,4.45
2023-05-16T21:00:42.348Z,5.43
2023-05-16T21:05:47.699Z,5.50
2023-05-16T21:10:49.359Z,3.65
2023-05-16T21:15:51.111Z,5.53
2023-05-16T21:20:59.681Z,4.82
2023-05-16T21:26:01.441Z,2.28
2023-05-16T21:31:03.053Z,3.65
2023-05-16T21:36:04.966Z,3.13
2023-05-16T21:41:06.831Z,2.35
2023-05-16T21:46:08.441Z,2.97
2023-05-16T21:51:11.785Z,2.58
2023-05-16T21:56:13.402Z,1.58
2023-05-16T22:01:16.532Z,4.30
2023-05-16T22:06:18.351Z,4.53
2023-05-16T22:11:20.130Z,4.55
2023-05-16T22:16:21.760Z,3.05
2023-05-16T22:21:23.504Z,2.50
2023-05-16T22:26:29.819Z,2.67
2023-05-16T22:31:31.432Z,3.88
2023-05-16T22:36:35.808Z,4.22
2023-05-16T22:41:41.748Z,2.00
2023-05-16T22:46:43.361Z,7.15
2023-05-16T22:51:45.652Z,2.90
2023-05-16T22:56:47.268Z,3.25
2023-05-16T23:01:48.911Z,5.18
2023-05-16T23:06:53.818Z,2.78
2023-05-16T23:11:55.407Z,4.28
2023-05-16T23:16:56.955Z,3.28
2023-05-16T23:21:58.534Z,2.75
2023-05-16T23:27:06.057Z,5.22
2023-05-16T23:32:07.646Z,6.05
2023-05-16T23:37:11.929Z,4.30
2023-05-16T23:42:13.489Z,3.95
2023-05-16T23:47:17.792Z,2.63
2023-05-16T23:52:23.806Z,6.10
2023-05-16T23:57:27.928Z,3.97
